sensor_id;sensor_type;location;lat;lon;timestamp;temperature;humidity
5834;DHT22;2943;48.012;10.968;2024-01-30T00:00:07;1.40;99.90
5834;DHT22;2943;48.012;10.968;2024-01-30T00:02:34;1.30;99.90
5834;DHT22;2943;48.012;10.968;2024-01-30T00:05:03;1.30;99.90
5834;DHT22;2943;48.012;10.968;2024-01-30T00:07:30;1.30;99.90
5834;DHT22;2943;48.012;10.968;2024-01-30T00:09:57;1.30;99.90
5834;DHT22;2943;48.012;10.968;2024-01-30T00:12:24;1.30;99.90
5834;DHT22;2943;48.012;10.968;2024-01-30T00:14:52;1.20;99.90
5834;DHT22;2943;48.012;10.968;2024-01-30T00:17:19;1.20;99.90
5834;DHT22;2943;48.012;10.968;2024-01-30T00:19:46;1.20;99.90
5834;DHT22;2943;48.012;10.968;2024-01-30T00:22:13;1.10;99.90
5834;DHT22;2943;48.012;10.968;2024-01-30T00:24:41;1.10;99.90
5834;DHT22;2943;48.012;10.968;2024-01-30T00:27:08;1.10;99.90
5834;DHT22;2943;48.012;10.968;2024-01-30T00:29:35;1.00;99.90
5834;DHT22;2943;48.012;10.968;2024-01-30T00:32:02;1.00;99.90
5834;DHT22;2943;48.012;10.968;2024-01-30T00:34:28;1.00;99.90
5834;DHT22;2943;48.012;10.968;2024-01-30T00:36:55;1.00;99.90
5834;DHT22;2943;48.012;10.968;2024-01-30T00:39:24;1.00;99.90
5834;DHT22;2943;48.012;10.968;2024-01-30T00:41:51;1.00;99.90
5834;DHT22;2943;48.012;10.968;2024-01-30T00:44:18;0.90;99.90
5834;DHT22;2943;48.012;10.968;2024-01-30T00:46:45;0.90;99.90
5834;DHT22;2943;48.012;10.968;2024-01-30T00:49:11;0.90;99.90
5834;DHT22;2943;48.012;10.968;2024-01-30T00:51:38;0.90;99.90
5834;DHT22;2943;48.012;10.968;2024-01-30T00:54:05;0.90;99.90
5834;DHT22;2943;48.012;10.968;2024-01-30T00:56:34;0.90;99.90
5834;DHT22;2943;48.012;10.968;2024-01-30T00:59:01;0.90;99.90
5834;DHT22;2943;48.012;10.968;2024-01-30T01:01:28;0.90;99.90
5834;DHT22;2943;48.012;10.968;2024-01-30T01:03:55;0.90;99.90
5834;DHT22;2943;48.012;10.968;2024-01-30T01:06:23;0.90;99.90
5834;DHT22;2943;48.012;10.968;2024-01-30T01:08:50;0.90;99.90
5834;DHT22;2943;48.012;10.968;2024-01-30T01:11:19;0.90;99.90
5834;DHT22;2943;48.012;10.968;2024-01-30T01:13:48;0.90;99.90
5834;DHT22;2943;48.012;10.968;2024-01-30T01:16:14;0.90;99.90
5834;DHT22;2943;48.012;10.968;2024-01-30T01:18:41;0.90;99.90
5834;DHT22;2943;48.012;10.968;2024-01-30T01:21:08;0.80;99.90
5834;DHT22;2943;48.012;10.968;2024-01-30T01:23:35;0.80;99.90
5834;DHT22;2943;48.012;10.968;2024-01-30T01:26:02;0.90;99.90
5834;DHT22;2943;48.012;10.968;2024-01-30T01:28:29;0.80;99.90
5834;DHT22;2943;48.012;10.968;2024-01-30T01:30:57;0.90;99.90
5834;DHT22;2943;48.012;10.968;2024-01-30T01:33:30;0.80;99.90
5834;DHT22;2943;48.012;10.968;2024-01-30T01:35:57;0.80;99.90
5834;DHT22;2943;48.012;10.968;2024-01-30T01:38:24;0.80;99.90
5834;DHT22;2943;48.012;10.968;2024-01-30T01:40:51;0.90;99.90
5834;DHT22;2943;48.012;10.968;2024-01-30T01:43:18;0.80;99.90
5834;DHT22;2943;48.012;10.968;2024-01-30T01:45:45;0.80;99.90
5834;DHT22;2943;48.012;10.968;2024-01-30T01:48:14;0.80;99.90
5834;DHT22;2943;48.012;10.968;2024-01-30T01:50:41;0.70;99.90
5834;DHT22;2943;48.012;10.968;2024-01-30T01:53:09;0.70;99.90
5834;DHT22;2943;48.012;10.968;2024-01-30T01:55:37;0.70;99.90
5834;DHT22;2943;48.012;10.968;2024-01-30T01:58:04;0.70;99.90
5834;DHT22;2943;48.012;10.968;2024-01-30T02:00:32;0.60;99.90
5834;DHT22;2943;48.012;10.968;2024-01-30T02:02:59;0.60;99.90
5834;DHT22;2943;48.012;10.968;2024-01-30T02:05:31;0.70;99.90
5834;DHT22;2943;48.012;10.968;2024-01-30T02:07:58;0.60;99.90
5834;DHT22;2943;48.012;10.968;2024-01-30T02:10:25;0.60;99.90
5834;DHT22;2943;48.012;10.968;2024-01-30T02:12:52;0.60;99.90
5834;DHT22;2943;48.012;10.968;2024-01-30T02:15:19;0.60;99.90
5834;DHT22;2943;48.012;10.968;2024-01-30T02:17:46;0.60;99.90
5834;DHT22;2943;48.012;10.968;2024-01-30T02:20:13;0.60;99.90
5834;DHT22;2943;48.012;10.968;2024-01-30T02:22:41;0.60;99.90
5834;DHT22;2943;48.012;10.968;2024-01-30T02:25:09;0.50;99.90
5834;DHT22;2943;48.012;10.968;2024-01-30T02:27:36;0.50;99.90
5834;DHT22;2943;48.012;10.968;2024-01-30T02:30:04;0.50;99.90
5834;DHT22;2943;48.012;10.968;2024-01-30T02:32:33;0.50;99.90
5834;DHT22;2943;48.012;10.968;2024-01-30T02:34:59;0.50;99.90
5834;DHT22;2943;48.012;10.968;2024-01-30T02:37:26;0.50;99.90
5834;DHT22;2943;48.012;10.968;2024-01-30T02:39:54;0.50;99.90
5834;DHT22;2943;48.012;10.968;2024-01-30T02:42:21;0.50;99.90
5834;DHT22;2943;48.012;10.968;2024-01-30T02:44:49;0.50;99.90
5834;DHT22;2943;48.012;10.968;2024-01-30T02:47:16;0.50;99.90
5834;DHT22;2943;48.012;10.968;2024-01-30T02:49:42;0.40;99.90
5834;DHT22;2943;48.012;10.968;2024-01-30T02:52:09;0.40;99.90
5834;DHT22;2943;48.012;10.968;2024-01-30T02:54:36;0.40;99.90
5834;DHT22;2943;48.012;10.968;2024-01-30T02:57:04;0.40;99.90
5834;DHT22;2943;48.012;10.968;2024-01-30T02:59:31;0.40;99.90
5834;DHT22;2943;48.012;10.968;2024-01-30T03:01:58;0.40;99.90
5834;DHT22;2943;48.012;10.968;2024-01-30T03:04:25;0.30;99.90
5834;DHT22;2943;48.012;10.968;2024-01-30T03:06:52;0.30;99.90
5834;DHT22;2943;48.012;10.968;2024-01-30T03:09:20;0.30;99.90
5834;DHT22;2943;48.012;10.968;2024-01-30T03:11:46;0.30;99.90
5834;DHT22;2943;48.012;10.968;2024-01-30T03:14:15;0.30;99.90
5834;DHT22;2943;48.012;10.968;2024-01-30T03:16:42;0.30;99.90
5834;DHT22;2943;48.012;10.968;2024-01-30T03:19:09;0.30;99.90
5834;DHT22;2943;48.012;10.968;2024-01-30T03:21:36;0.30;99.90
5834;DHT22;2943;48.012;10.968;2024-01-30T03:24:03;0.30;99.90
5834;DHT22;2943;48.012;10.968;2024-01-30T03:26:30;0.30;99.90
5834;DHT22;2943;48.012;10.968;2024-01-30T03:28:57;0.30;99.90
5834;DHT22;2943;48.012;10.968;2024-01-30T03:31:25;0.30;99.90
5834;DHT22;2943;48.012;10.968;2024-01-30T03:33:52;0.40;99.90
5834;DHT22;2943;48.012;10.968;2024-01-30T03:36:19;0.40;99.90
5834;DHT22;2943;48.012;10.968;2024-01-30T03:38:46;0.40;99.90
5834;DHT22;2943;48.012;10.968;2024-01-30T03:41:13;0.40;99.90
5834;DHT22;2943;48.012;10.968;2024-01-30T03:43:40;0.40;99.90
5834;DHT22;2943;48.012;10.968;2024-01-30T03:46:07;0.30;99.90
5834;DHT22;2943;48.012;10.968;2024-01-30T03:48:36;0.30;99.90
5834;DHT22;2943;48.012;10.968;2024-01-30T03:51:03;0.30;99.90
5834;DHT22;2943;48.012;10.968;2024-01-30T03:53:30;0.30;99.90
5834;DHT22;2943;48.012;10.968;2024-01-30T03:55:57;0.30;99.90
5834;DHT22;2943;48.012;10.968;2024-01-30T03:58:23;0.30;99.90
5834;DHT22;2943;48.012;10.968;2024-01-30T04:00:50;0.30;99.90
5834;DHT22;2943;48.012;10.968;2024-01-30T04:03:17;0.30;99.90
5834;DHT22;2943;48.012;10.968;2024-01-30T04:05:46;0.20;99.90
5834;DHT22;2943;48.012;10.968;2024-01-30T04:08:12;0.20;99.90
5834;DHT22;2943;48.012;10.968;2024-01-30T04:10:40;0.20;99.90
5834;DHT22;2943;48.012;10.968;2024-01-30T04:13:07;0.20;99.90
5834;DHT22;2943;48.012;10.968;2024-01-30T04:15:34;0.10;99.90
5834;DHT22;2943;48.012;10.968;2024-01-30T04:18:01;0.10;99.90
5834;DHT22;2943;48.012;10.968;2024-01-30T04:20:28;0.10;99.90
5834;DHT22;2943;48.012;10.968;2024-01-30T04:22:57;0.10;99.90
5834;DHT22;2943;48.012;10.968;2024-01-30T04:25:24;0.00;99.90
5834;DHT22;2943;48.012;10.968;2024-01-30T04:27:50;0.00;99.90
5834;DHT22;2943;48.012;10.968;2024-01-30T04:30:18;0.00;99.90
5834;DHT22;2943;48.012;10.968;2024-01-30T04:32:45;0.00;99.90
5834;DHT22;2943;48.012;10.968;2024-01-30T04:35:12;0.00;99.90
5834;DHT22;2943;48.012;10.968;2024-01-30T04:37:38;0.00;99.90
5834;DHT22;2943;48.012;10.968;2024-01-30T04:40:08;0.00;99.90
5834;DHT22;2943;48.012;10.968;2024-01-30T04:42:35;0.00;99.90
5834;DHT22;2943;48.012;10.968;2024-01-30T04:45:02;0.00;99.90
5834;DHT22;2943;48.012;10.968;2024-01-30T04:47:29;0.00;99.90
5834;DHT22;2943;48.012;10.968;2024-01-30T04:49:56;0.00;99.90
5834;DHT22;2943;48.012;10.968;2024-01-30T04:52:22;-0.10;99.90
5834;DHT22;2943;48.012;10.968;2024-01-30T04:54:49;-0.10;99.90
5834;DHT22;2943;48.012;10.968;2024-01-30T04:57:18;-0.10;99.90
5834;DHT22;2943;48.012;10.968;2024-01-30T04:59:47;-0.10;99.90
5834;DHT22;2943;48.012;10.968;2024-01-30T05:02:15;-0.10;99.90
5834;DHT22;2943;48.012;10.968;2024-01-30T05:04:41;-0.10;99.90
5834;DHT22;2943;48.012;10.968;2024-01-30T05:07:08;-0.10;99.90
5834;DHT22;2943;48.012;10.968;2024-01-30T05:09:35;-0.10;99.90
5834;DHT22;2943;48.012;10.968;2024-01-30T05:12:02;-0.10;99.90
5834;DHT22;2943;48.012;10.968;2024-01-30T05:14:31;-0.10;99.90
5834;DHT22;2943;48.012;10.968;2024-01-30T05:16:58;-0.10;99.90
5834;DHT22;2943;48.012;10.968;2024-01-30T05:19:24;-0.10;99.90
5834;DHT22;2943;48.012;10.968;2024-01-30T05:21:51;-0.10;99.90
5834;DHT22;2943;48.012;10.968;2024-01-30T05:24:18;-0.10;99.90
5834;DHT22;2943;48.012;10.968;2024-01-30T05:26:45;-0.10;99.90
5834;DHT22;2943;48.012;10.968;2024-01-30T05:29:13;-0.10;99.90
5834;DHT22;2943;48.012;10.968;2024-01-30T05:31:41;-0.20;99.90
5834;DHT22;2943;48.012;10.968;2024-01-30T05:34:08;-0.20;99.90
5834;DHT22;2943;48.012;10.968;2024-01-30T05:36:36;-0.10;99.90
5834;DHT22;2943;48.012;10.968;2024-01-30T05:39:02;-0.10;99.90
5834;DHT22;2943;48.012;10.968;2024-01-30T05:41:30;-0.10;99.90
5834;DHT22;2943;48.012;10.968;2024-01-30T05:43:57;-0.20;99.90
5834;DHT22;2943;48.012;10.968;2024-01-30T05:46:24;-0.20;99.90
5834;DHT22;2943;48.012;10.968;2024-01-30T05:48:52;-0.20;99.90
5834;DHT22;2943;48.012;10.968;2024-01-30T05:51:19;-0.20;99.90
5834;DHT22;2943;48.012;10.968;2024-01-30T05:53:46;-0.30;99.90
5834;DHT22;2943;48.012;10.968;2024-01-30T05:56:14;-0.30;99.90
5834;DHT22;2943;48.012;10.968;2024-01-30T05:58:41;-0.30;99.90
5834;DHT22;2943;48.012;10.968;2024-01-30T06:01:08;-0.30;99.90
5834;DHT22;2943;48.012;10.968;2024-01-30T06:03:35;-0.30;99.90
5834;DHT22;2943;48.012;10.968;2024-01-30T06:06:04;-0.20;99.90
5834;DHT22;2943;48.012;10.968;2024-01-30T06:08:31;-0.20;99.90
5834;DHT22;2943;48.012;10.968;2024-01-30T06:10:57;-0.20;99.90
5834;DHT22;2943;48.012;10.968;2024-01-30T06:13:24;-0.10;99.90
5834;DHT22;2943;48.012;10.968;2024-01-30T06:15:51;-0.10;99.90
5834;DHT22;2943;48.012;10.968;2024-01-30T06:18:18;0.00;99.90
5834;DHT22;2943;48.012;10.968;2024-01-30T06:20:46;0.00;99.90
5834;DHT22;2943;48.012;10.968;2024-01-30T06:23:14;0.00;99.90
5834;DHT22;2943;48.012;10.968;2024-01-30T06:25:41;0.00;99.90
5834;DHT22;2943;48.012;10.968;2024-01-30T06:28:08;0.10;99.90
5834;DHT22;2943;48.012;10.968;2024-01-30T06:30:34;0.00;99.90
5834;DHT22;2943;48.012;10.968;2024-01-30T06:33:01;0.00;99.90
5834;DHT22;2943;48.012;10.968;2024-01-30T06:35:28;0.10;99.90
5834;DHT22;2943;48.012;10.968;2024-01-30T06:37:55;0.00;99.90
5834;DHT22;2943;48.012;10.968;2024-01-30T06:40:24;0.10;99.90
5834;DHT22;2943;48.012;10.968;2024-01-30T06:42:51;0.10;99.90
5834;DHT22;2943;48.012;10.968;2024-01-30T06:45:18;0.10;99.90
5834;DHT22;2943;48.012;10.968;2024-01-30T06:47:45;0.10;99.90
5834;DHT22;2943;48.012;10.968;2024-01-30T06:50:12;0.20;99.90
5834;DHT22;2943;48.012;10.968;2024-01-30T06:52:38;0.20;99.90
5834;DHT22;2943;48.012;10.968;2024-01-30T06:55:06;0.30;99.90
5834;DHT22;2943;48.012;10.968;2024-01-30T06:57:34;0.40;99.90
5834;DHT22;2943;48.012;10.968;2024-01-30T07:00:01;0.40;99.90
5834;DHT22;2943;48.012;10.968;2024-01-30T07:02:28;0.50;99.90
5834;DHT22;2943;48.012;10.968;2024-01-30T07:04:55;0.50;99.90
5834;DHT22;2943;48.012;10.968;2024-01-30T07:07:22;0.50;99.90
5834;DHT22;2943;48.012;10.968;2024-01-30T07:09:49;0.50;99.90
5834;DHT22;2943;48.012;10.968;2024-01-30T07:12:21;0.40;99.90
5834;DHT22;2943;48.012;10.968;2024-01-30T07:14:49;0.40;99.90
5834;DHT22;2943;48.012;10.968;2024-01-30T07:17:16;0.40;99.90
5834;DHT22;2943;48.012;10.968;2024-01-30T07:19:43;0.50;99.90
5834;DHT22;2943;48.012;10.968;2024-01-30T07:22:10;0.50;99.90
5834;DHT22;2943;48.012;10.968;2024-01-30T07:24:42;0.50;99.90
5834;DHT22;2943;48.012;10.968;2024-01-30T07:27:10;0.50;99.90
5834;DHT22;2943;48.012;10.968;2024-01-30T07:29:37;0.50;99.90
5834;DHT22;2943;48.012;10.968;2024-01-30T07:32:05;0.50;99.90
5834;DHT22;2943;48.012;10.968;2024-01-30T07:34:32;0.50;99.90
5834;DHT22;2943;48.012;10.968;2024-01-30T07:36:59;0.50;99.90
5834;DHT22;2943;48.012;10.968;2024-01-30T07:39:26;0.50;99.90
5834;DHT22;2943;48.012;10.968;2024-01-30T07:41:53;0.50;99.90
5834;DHT22;2943;48.012;10.968;2024-01-30T07:44:20;0.50;99.90
5834;DHT22;2943;48.012;10.968;2024-01-30T07:46:47;0.50;99.90
5834;DHT22;2943;48.012;10.968;2024-01-30T07:49:17;0.50;99.90
5834;DHT22;2943;48.012;10.968;2024-01-30T07:51:44;0.50;99.90
5834;DHT22;2943;48.012;10.968;2024-01-30T07:54:12;0.50;99.90
5834;DHT22;2943;48.012;10.968;2024-01-30T07:56:39;0.50;99.90
5834;DHT22;2943;48.012;10.968;2024-01-30T07:59:09;0.60;99.90
5834;DHT22;2943;48.012;10.968;2024-01-30T08:01:36;0.60;99.90
5834;DHT22;2943;48.012;10.968;2024-01-30T08:04:03;0.70;99.90
5834;DHT22;2943;48.012;10.968;2024-01-30T08:06:32;0.70;99.90
5834;DHT22;2943;48.012;10.968;2024-01-30T08:08:59;0.80;99.90
5834;DHT22;2943;48.012;10.968;2024-01-30T08:11:26;0.80;99.90
5834;DHT22;2943;48.012;10.968;2024-01-30T08:13:55;0.90;99.90
5834;DHT22;2943;48.012;10.968;2024-01-30T08:16:21;1.00;99.90
5834;DHT22;2943;48.012;10.968;2024-01-30T08:18:48;1.00;99.90
5834;DHT22;2943;48.012;10.968;2024-01-30T08:21:15;1.10;99.90
5834;DHT22;2943;48.012;10.968;2024-01-30T08:23:44;1.20;99.90
5834;DHT22;2943;48.012;10.968;2024-01-30T08:26:11;1.30;99.90
5834;DHT22;2943;48.012;10.968;2024-01-30T08:28:38;1.40;99.90
5834;DHT22;2943;48.012;10.968;2024-01-30T08:31:05;1.50;99.90
5834;DHT22;2943;48.012;10.968;2024-01-30T08:33:31;1.60;99.90
5834;DHT22;2943;48.012;10.968;2024-01-30T08:35:58;1.80;99.90
5834;DHT22;2943;48.012;10.968;2024-01-30T08:38:25;1.90;99.90
5834;DHT22;2943;48.012;10.968;2024-01-30T08:40:55;2.00;99.90
5834;DHT22;2943;48.012;10.968;2024-01-30T08:43:22;2.10;99.90
5834;DHT22;2943;48.012;10.968;2024-01-30T08:45:49;2.20;99.90
5834;DHT22;2943;48.012;10.968;2024-01-30T08:48:16;2.30;99.90
5834;DHT22;2943;48.012;10.968;2024-01-30T08:50:43;2.30;99.90
5834;DHT22;2943;48.012;10.968;2024-01-30T08:53:10;2.40;99.90
5834;DHT22;2943;48.012;10.968;2024-01-30T08:55:37;2.50;99.90
5834;DHT22;2943;48.012;10.968;2024-01-30T08:58:06;2.60;99.90
5834;DHT22;2943;48.012;10.968;2024-01-30T09:00:33;2.70;99.90
5834;DHT22;2943;48.012;10.968;2024-01-30T09:03:00;2.80;99.90
5834;DHT22;2943;48.012;10.968;2024-01-30T09:05:27;2.90;99.90
5834;DHT22;2943;48.012;10.968;2024-01-30T09:07:54;3.00;99.90
5834;DHT22;2943;48.012;10.968;2024-01-30T09:10:21;3.00;99.90
5834;DHT22;2943;48.012;10.968;2024-01-30T09:12:48;3.10;99.90
5834;DHT22;2943;48.012;10.968;2024-01-30T09:15:17;3.30;99.90
5834;DHT22;2943;48.012;10.968;2024-01-30T09:17:45;3.40;99.90
5834;DHT22;2943;48.012;10.968;2024-01-30T09:20:12;3.50;99.90
5834;DHT22;2943;48.012;10.968;2024-01-30T09:22:38;3.60;99.90
5834;DHT22;2943;48.012;10.968;2024-01-30T09:25:06;3.80;99.90
5834;DHT22;2943;48.012;10.968;2024-01-30T09:27:32;3.90;99.90
5834;DHT22;2943;48.012;10.968;2024-01-30T09:30:00;4.10;99.90
5834;DHT22;2943;48.012;10.968;2024-01-30T09:32:29;4.20;99.90
5834;DHT22;2943;48.012;10.968;2024-01-30T09:34:56;4.30;99.90
5834;DHT22;2943;48.012;10.968;2024-01-30T09:37:23;4.50;99.90
5834;DHT22;2943;48.012;10.968;2024-01-30T09:39:49;4.70;99.90
5834;DHT22;2943;48.012;10.968;2024-01-30T09:42:25;4.80;99.90
5834;DHT22;2943;48.012;10.968;2024-01-30T09:44:53;4.90;99.90
5834;DHT22;2943;48.012;10.968;2024-01-30T09:47:21;5.10;99.90
5834;DHT22;2943;48.012;10.968;2024-01-30T09:49:51;5.20;99.90
5834;DHT22;2943;48.012;10.968;2024-01-30T09:52:18;5.30;99.90
5834;DHT22;2943;48.012;10.968;2024-01-30T09:54:45;5.50;99.90
5834;DHT22;2943;48.012;10.968;2024-01-30T09:57:13;5.60;99.90
5834;DHT22;2943;48.012;10.968;2024-01-30T09:59:41;5.80;99.90
5834;DHT22;2943;48.012;10.968;2024-01-30T10:02:08;6.00;99.90
5834;DHT22;2943;48.012;10.968;2024-01-30T10:04:36;6.10;99.90
5834;DHT22;2943;48.012;10.968;2024-01-30T10:07:04;6.30;99.90
5834;DHT22;2943;48.012;10.968;2024-01-30T10:09:32;6.40;99.90
5834;DHT22;2943;48.012;10.968;2024-01-30T10:12:00;6.50;99.90
5834;DHT22;2943;48.012;10.968;2024-01-30T10:14:29;6.60;99.90
5834;DHT22;2943;48.012;10.968;2024-01-30T10:16:57;6.80;99.90
5834;DHT22;2943;48.012;10.968;2024-01-30T10:19:25;6.80;99.90
5834;DHT22;2943;48.012;10.968;2024-01-30T10:21:52;7.00;99.90
5834;DHT22;2943;48.012;10.968;2024-01-30T10:24:24;7.10;99.90
5834;DHT22;2943;48.012;10.968;2024-01-30T10:26:51;7.20;99.90
5834;DHT22;2943;48.012;10.968;2024-01-30T10:29:19;7.30;99.90
5834;DHT22;2943;48.012;10.968;2024-01-30T10:31:56;7.40;99.90
5834;DHT22;2943;48.012;10.968;2024-01-30T10:34:23;7.50;99.90
5834;DHT22;2943;48.012;10.968;2024-01-30T10:36:56;7.50;99.90
5834;DHT22;2943;48.012;10.968;2024-01-30T10:39:28;7.60;99.90
5834;DHT22;2943;48.012;10.968;2024-01-30T10:42:01;7.60;99.90
5834;DHT22;2943;48.012;10.968;2024-01-30T10:44:36;7.70;99.90
5834;DHT22;2943;48.012;10.968;2024-01-30T10:47:07;7.80;99.90
5834;DHT22;2943;48.012;10.968;2024-01-30T10:49:39;7.90;99.90
5834;DHT22;2943;48.012;10.968;2024-01-30T10:52:08;7.90;99.90
5834;DHT22;2943;48.012;10.968;2024-01-30T10:54:37;8.00;99.90
5834;DHT22;2943;48.012;10.968;2024-01-30T10:57:06;8.10;99.90
5834;DHT22;2943;48.012;10.968;2024-01-30T10:59:34;8.20;99.90
5834;DHT22;2943;48.012;10.968;2024-01-30T11:02:02;8.30;99.90
5834;DHT22;2943;48.012;10.968;2024-01-30T11:04:36;8.40;99.90
5834;DHT22;2943;48.012;10.968;2024-01-30T11:07:03;8.50;99.90
5834;DHT22;2943;48.012;10.968;2024-01-30T11:09:47;8.60;99.90
5834;DHT22;2943;48.012;10.968;2024-01-30T11:12:14;8.70;99.90
5834;DHT22;2943;48.012;10.968;2024-01-30T11:14:41;8.80;99.90
5834;DHT22;2943;48.012;10.968;2024-01-30T11:17:10;8.90;99.90
5834;DHT22;2943;48.012;10.968;2024-01-30T11:19:37;9.00;99.90
5834;DHT22;2943;48.012;10.968;2024-01-30T11:22:06;9.10;99.90
5834;DHT22;2943;48.012;10.968;2024-01-30T11:24:40;9.20;99.90
5834;DHT22;2943;48.012;10.968;2024-01-30T11:27:08;9.20;99.90
5834;DHT22;2943;48.012;10.968;2024-01-30T11:29:36;9.30;99.90
5834;DHT22;2943;48.012;10.968;2024-01-30T11:32:03;9.40;99.90
5834;DHT22;2943;48.012;10.968;2024-01-30T11:34:32;9.50;99.90
5834;DHT22;2943;48.012;10.968;2024-01-30T11:37:03;9.60;99.90
5834;DHT22;2943;48.012;10.968;2024-01-30T11:39:30;9.60;99.90
5834;DHT22;2943;48.012;10.968;2024-01-30T11:41:59;9.70;99.90
5834;DHT22;2943;48.012;10.968;2024-01-30T11:44:26;9.80;99.90
5834;DHT22;2943;48.012;10.968;2024-01-30T11:46:53;9.80;99.90
5834;DHT22;2943;48.012;10.968;2024-01-30T11:49:19;9.90;99.90
5834;DHT22;2943;48.012;10.968;2024-01-30T11:51:47;9.90;99.90
5834;DHT22;2943;48.012;10.968;2024-01-30T11:54:15;9.90;99.90
5834;DHT22;2943;48.012;10.968;2024-01-30T11:56:42;10.00;99.90
5834;DHT22;2943;48.012;10.968;2024-01-30T11:59:11;10.00;99.90
5834;DHT22;2943;48.012;10.968;2024-01-30T12:01:38;10.10;99.90
5834;DHT22;2943;48.012;10.968;2024-01-30T12:04:05;10.10;99.90
5834;DHT22;2943;48.012;10.968;2024-01-30T12:06:34;10.20;99.90
5834;DHT22;2943;48.012;10.968;2024-01-30T12:09:02;10.20;99.90
5834;DHT22;2943;48.012;10.968;2024-01-30T12:11:30;10.30;99.90
5834;DHT22;2943;48.012;10.968;2024-01-30T12:13:57;10.20;99.90
5834;DHT22;2943;48.012;10.968;2024-01-30T12:16:26;10.30;99.90
5834;DHT22;2943;48.012;10.968;2024-01-30T12:18:59;10.40;99.90
5834;DHT22;2943;48.012;10.968;2024-01-30T12:21:28;10.40;99.90
5834;DHT22;2943;48.012;10.968;2024-01-30T12:23:56;10.40;99.90
5834;DHT22;2943;48.012;10.968;2024-01-30T12:26:23;10.40;99.90
5834;DHT22;2943;48.012;10.968;2024-01-30T12:28:51;10.50;99.90
5834;DHT22;2943;48.012;10.968;2024-01-30T12:31:27;10.60;99.90
5834;DHT22;2943;48.012;10.968;2024-01-30T12:33:54;10.60;99.90
5834;DHT22;2943;48.012;10.968;2024-01-30T12:36:22;10.70;99.90
5834;DHT22;2943;48.012;10.968;2024-01-30T12:38:50;10.70;99.90
5834;DHT22;2943;48.012;10.968;2024-01-30T12:41:17;10.70;99.90
5834;DHT22;2943;48.012;10.968;2024-01-30T12:43:44;10.70;99.90
5834;DHT22;2943;48.012;10.968;2024-01-30T12:46:11;10.80;99.90
5834;DHT22;2943;48.012;10.968;2024-01-30T12:48:39;10.80;99.90
5834;DHT22;2943;48.012;10.968;2024-01-30T12:51:06;10.80;99.90
5834;DHT22;2943;48.012;10.968;2024-01-30T12:53:33;10.80;99.90
5834;DHT22;2943;48.012;10.968;2024-01-30T12:56:00;10.80;99.90
5834;DHT22;2943;48.012;10.968;2024-01-30T12:58:27;10.90;99.90
5834;DHT22;2943;48.012;10.968;2024-01-30T13:00:54;10.90;99.90
5834;DHT22;2943;48.012;10.968;2024-01-30T13:03:22;10.90;99.90
5834;DHT22;2943;48.012;10.968;2024-01-30T13:05:51;10.90;99.90
5834;DHT22;2943;48.012;10.968;2024-01-30T13:08:18;10.90;99.90
5834;DHT22;2943;48.012;10.968;2024-01-30T13:10:45;10.90;99.90
5834;DHT22;2943;48.012;10.968;2024-01-30T13:13:12;10.90;99.90
5834;DHT22;2943;48.012;10.968;2024-01-30T13:15:40;10.90;99.90
5834;DHT22;2943;48.012;10.968;2024-01-30T13:18:07;10.90;99.90
5834;DHT22;2943;48.012;10.968;2024-01-30T13:20:34;10.90;99.90
5834;DHT22;2943;48.012;10.968;2024-01-30T13:23:03;10.90;99.90
5834;DHT22;2943;48.012;10.968;2024-01-30T13:25:33;10.90;99.90
5834;DHT22;2943;48.012;10.968;2024-01-30T13:28:01;10.90;99.90
5834;DHT22;2943;48.012;10.968;2024-01-30T13:30:28;10.90;99.90
5834;DHT22;2943;48.012;10.968;2024-01-30T13:32:55;10.90;99.90
5834;DHT22;2943;48.012;10.968;2024-01-30T13:35:22;10.80;99.90
5834;DHT22;2943;48.012;10.968;2024-01-30T13:37:50;10.80;99.90
5834;DHT22;2943;48.012;10.968;2024-01-30T13:40:18;10.80;99.90
5834;DHT22;2943;48.012;10.968;2024-01-30T13:42:45;10.80;99.90
5834;DHT22;2943;48.012;10.968;2024-01-30T13:45:13;10.80;99.90
5834;DHT22;2943;48.012;10.968;2024-01-30T13:47:40;10.80;99.90
5834;DHT22;2943;48.012;10.968;2024-01-30T13:50:08;10.80;99.90
5834;DHT22;2943;48.012;10.968;2024-01-30T13:52:40;10.80;99.90
5834;DHT22;2943;48.012;10.968;2024-01-30T13:55:07;10.80;99.90
5834;DHT22;2943;48.012;10.968;2024-01-30T13:57:37;10.80;99.90
5834;DHT22;2943;48.012;10.968;2024-01-30T14:00:05;10.80;99.90
5834;DHT22;2943;48.012;10.968;2024-01-30T14:02:32;10.90;99.90
5834;DHT22;2943;48.012;10.968;2024-01-30T14:05:00;10.90;99.90
5834;DHT22;2943;48.012;10.968;2024-01-30T14:07:30;10.90;99.90
5834;DHT22;2943;48.012;10.968;2024-01-30T14:09:57;10.90;99.90
5834;DHT22;2943;48.012;10.968;2024-01-30T14:12:25;10.90;99.90
5834;DHT22;2943;48.012;10.968;2024-01-30T14:14:57;10.90;99.90
5834;DHT22;2943;48.012;10.968;2024-01-30T14:17:24;10.90;99.90
5834;DHT22;2943;48.012;10.968;2024-01-30T14:19:51;10.90;99.90
5834;DHT22;2943;48.012;10.968;2024-01-30T14:22:19;10.90;99.90
5834;DHT22;2943;48.012;10.968;2024-01-30T14:24:46;10.90;99.90
5834;DHT22;2943;48.012;10.968;2024-01-30T14:27:13;10.90;99.90
5834;DHT22;2943;48.012;10.968;2024-01-30T14:29:39;10.90;99.90
5834;DHT22;2943;48.012;10.968;2024-01-30T14:32:09;10.90;99.90
5834;DHT22;2943;48.012;10.968;2024-01-30T14:34:36;10.90;99.90
5834;DHT22;2943;48.012;10.968;2024-01-30T14:37:03;10.90;99.90
5834;DHT22;2943;48.012;10.968;2024-01-30T14:39:30;10.80;99.90
5834;DHT22;2943;48.012;10.968;2024-01-30T14:41:58;10.80;99.90
5834;DHT22;2943;48.012;10.968;2024-01-30T14:44:25;10.80;99.90
5834;DHT22;2943;48.012;10.968;2024-01-30T14:46:54;10.70;99.90
5834;DHT22;2943;48.012;10.968;2024-01-30T14:49:22;10.70;99.90
5834;DHT22;2943;48.012;10.968;2024-01-30T14:51:49;10.70;99.90
5834;DHT22;2943;48.012;10.968;2024-01-30T14:54:16;10.60;99.90
5834;DHT22;2943;48.012;10.968;2024-01-30T14:56:44;10.60;99.90
5834;DHT22;2943;48.012;10.968;2024-01-30T14:59:11;10.60;99.90
5834;DHT22;2943;48.012;10.968;2024-01-30T15:01:38;10.60;99.90
5834;DHT22;2943;48.012;10.968;2024-01-30T15:04:05;10.50;99.90
5834;DHT22;2943;48.012;10.968;2024-01-30T15:06:35;10.50;99.90
5834;DHT22;2943;48.012;10.968;2024-01-30T15:09:03;10.50;99.90
5834;DHT22;2943;48.012;10.968;2024-01-30T15:11:30;10.50;99.90
5834;DHT22;2943;48.012;10.968;2024-01-30T15:13:58;10.40;99.90
5834;DHT22;2943;48.012;10.968;2024-01-30T15:16:25;10.40;99.90
5834;DHT22;2943;48.012;10.968;2024-01-30T15:18:53;10.40;99.90
5834;DHT22;2943;48.012;10.968;2024-01-30T15:21:20;10.30;99.90
5834;DHT22;2943;48.012;10.968;2024-01-30T15:23:49;10.20;99.90
5834;DHT22;2943;48.012;10.968;2024-01-30T15:26:16;10.20;99.90
5834;DHT22;2943;48.012;10.968;2024-01-30T15:28:43;10.10;99.90
5834;DHT22;2943;48.012;10.968;2024-01-30T15:31:10;10.10;99.90
5834;DHT22;2943;48.012;10.968;2024-01-30T15:33:37;10.10;99.90
5834;DHT22;2943;48.012;10.968;2024-01-30T15:36:05;10.00;99.90
5834;DHT22;2943;48.012;10.968;2024-01-30T15:38:32;10.00;99.90
5834;DHT22;2943;48.012;10.968;2024-01-30T15:41:03;9.90;99.90
5834;DHT22;2943;48.012;10.968;2024-01-30T15:43:30;9.90;99.90
5834;DHT22;2943;48.012;10.968;2024-01-30T15:45:58;9.80;99.90
5834;DHT22;2943;48.012;10.968;2024-01-30T15:48:26;9.80;99.90
5834;DHT22;2943;48.012;10.968;2024-01-30T15:50:53;9.80;99.90
5834;DHT22;2943;48.012;10.968;2024-01-30T15:53:21;9.70;99.90
5834;DHT22;2943;48.012;10.968;2024-01-30T15:55:48;9.60;99.90
5834;DHT22;2943;48.012;10.968;2024-01-30T15:58:17;9.50;99.90